Time;durP1;ratioP1;P1;durP2;ratioP2;P2;SDS_P1;SDS_P2;PMS_P1;PMS_P2;Temp;Humidity;BMP_temperature;BMP_pressure;BME280_temperature;BME280_humidity;BME280_pressure;Samples;Min_cycle;Max_cycle;Signal;HPM_P1;HPM_P2
2021/08/18 00:02:42;;;;;;;31.87;14.50;;;15.50;99.90;;;;;;21010856;28;20136;-78
2021/08/18 00:12:43;;;;;;;25.93;13.27;;;15.50;99.90;;;;;;21009955;28;20020;-78
2021/08/18 00:22:45;;;;;;;32.93;14.07;;;15.60;99.90;;;;;;21007851;28;20041;-77
2021/08/18 00:32:45;;;;;;;22.67;11.83;;;15.60;99.90;;;;;;21007764;28;20077;-78
2021/08/18 00:42:47;;;;;;;26.67;12.30;;;15.70;99.90;;;;;;21005619;28;20032;-77
2021/08/18 00:52:48;;;;;;;24.08;12.55;;;15.70;99.90;;;;;;21004334;28;20082;-77
2021/08/18 01:02:49;;;;;;;27.17;13.87;;;15.70;99.90;;;;;;21004170;28;20060;-77
2021/08/18 01:12:51;;;;;;;31.85;14.70;;;15.70;99.90;;;;;;21005859;28;20025;-78
2021/08/18 01:22:53;;;;;;;25.65;13.45;;;15.60;99.90;;;;;;21006232;28;20115;-77
2021/08/18 01:33:06;;;;;;;27.90;13.48;;;15.50;99.90;;;;;;21005116;28;20037;-78
2021/08/18 01:43:08;;;;;;;34.15;14.20;;;15.50;99.90;;;;;;21004241;28;20082;-77
2021/08/18 01:53:09;;;;;;;31.55;15.68;;;15.50;99.90;;;;;;21003585;28;20056;-78
2021/08/18 02:03:10;;;;;;;24.53;12.40;;;15.40;99.90;;;;;;21002863;28;20033;-76
2021/08/18 02:13:12;;;;;;;29.40;13.87;;;15.30;99.90;;;;;;21003097;28;20035;-78
2021/08/18 02:23:14;;;;;;;31.27;13.77;;;15.20;99.90;;;;;;21004767;28;20814;-76
2021/08/18 02:33:15;;;;;;;25.92;11.88;;;15.20;99.90;;;;;;21002863;28;20039;-77
2021/08/18 02:43:16;;;;;;;29.47;11.60;;;15.20;99.90;;;;;;21002768;28;20444;-76
2021/08/18 02:53:17;;;;;;;20.60;10.10;;;15.10;99.90;;;;;;21011273;28;20032;-77
2021/08/18 03:03:18;;;;;;;22.20;9.60;;;15.00;99.90;;;;;;21012364;28;20037;-77
2021/08/18 03:13:18;;;;;;;20.17;10.17;;;15.10;99.90;;;;;;20994007;28;20383;-76
2021/08/18 03:23:19;;;;;;;20.77;9.80;;;15.00;99.90;;;;;;21010715;28;20119;-77
2021/08/18 03:33:20;;;;;;;19.73;8.73;;;14.90;99.90;;;;;;21011795;28;20085;-77
2021/08/18 03:43:21;;;;;;;18.53;8.93;;;15.00;99.90;;;;;;21010916;28;20517;-77
2021/08/18 03:53:22;;;;;;;19.87;8.50;;;14.90;99.90;;;;;;21009267;28;20033;-77
2021/08/18 04:03:23;;;;;;;21.07;8.37;;;14.90;99.90;;;;;;21031114;22;20027;-79
2021/08/18 04:13:24;;;;;;;18.67;8.67;;;14.80;99.90;;;;;;21023018;28;20040;-79
2021/08/18 04:23:25;;;;;;;17.87;7.47;;;14.90;99.90;;;;;;21085021;28;20101;-79
2021/08/18 04:33:26;;;;;;;18.70;8.70;;;14.90;99.90;;;;;;21111210;28;20047;-79
2021/08/18 04:43:27;;;;;;;18.70;8.30;;;14.80;99.90;;;;;;21084223;28;20032;-78
2021/08/18 04:53:28;;;;;;;21.67;8.87;;;14.80;99.90;;;;;;21085863;28;20036;-76
2021/08/18 05:03:29;;;;;;;22.13;8.43;;;14.70;99.90;;;;;;21078449;28;20359;-76
2021/08/18 05:13:30;;;;;;;18.00;8.07;;;14.70;99.90;;;;;;21061050;28;20032;-76
2021/08/18 05:23:31;;;;;;;20.13;7.93;;;14.90;99.90;;;;;;21077794;28;20035;-77
2021/08/18 05:33:33;;;;;;;17.60;7.40;;;14.90;99.90;;;;;;21087328;28;20028;-79
2021/08/18 05:43:33;;;;;;;18.92;8.25;;;14.90;99.90;;;;;;21106095;28;20260;-78
2021/08/18 05:53:35;;;;;;;15.73;7.70;;;14.90;99.90;;;;;;21101366;28;20055;-78
2021/08/18 06:03:36;;;;;;;15.90;7.60;;;14.90;99.90;;;;;;21083529;28;20032;-77
2021/08/18 06:13:37;;;;;;;17.03;8.50;;;14.80;99.90;;;;;;21080695;28;20082;-78
2021/08/18 06:23:38;;;;;;;14.47;7.30;;;14.90;99.90;;;;;;21109089;28;20274;-78
2021/08/18 06:33:39;;;;;;;16.13;7.67;;;14.90;99.90;;;;;;21101219;28;20135;-78
2021/08/18 06:43:39;;;;;;;17.27;6.53;;;15.00;99.90;;;;;;21096881;28;20623;-77
2021/08/18 06:53:40;;;;;;;19.10;7.13;;;15.10;99.90;;;;;;21096146;28;20032;-78
2021/08/18 07:03:41;;;;;;;12.57;6.93;;;15.30;99.90;;;;;;21095908;28;20035;-77
2021/08/18 07:13:42;;;;;;;24.50;6.73;;;15.50;99.90;;;;;;21094769;28;20055;-77
2021/08/18 07:23:42;;;;;;;16.10;7.23;;;15.60;99.90;;;;;;21092905;28;20036;-78
2021/08/18 07:33:43;;;;;;;21.23;7.33;;;15.60;99.90;;;;;;21088999;28;20391;-78
2021/08/18 07:43:44;;;;;;;12.90;6.57;;;15.70;99.90;;;;;;21089490;28;20028;-77
2021/08/18 07:53:45;;;;;;;14.37;7.00;;;15.80;99.90;;;;;;21073321;28;20032;-77
2021/08/18 08:03:49;;;;;;;17.33;6.78;;;16.10;99.90;;;;;;21074664;28;20054;-77
2021/08/18 08:13:50;;;;;;;16.05;5.43;;;16.00;99.90;;;;;;21087585;28;20036;-77
2021/08/18 08:23:52;;;;;;;12.90;6.00;;;16.20;99.90;;;;;;21087060;28;20036;-78
2021/08/18 08:33:52;;;;;;;16.43;6.17;;;16.40;99.90;;;;;;21089174;28;20032;-78
2021/08/18 08:43:54;;;;;;;19.20;6.03;;;16.40;99.90;;;;;;21080056;28;20043;-75
2021/08/18 08:53:55;;;;;;;13.93;5.88;;;16.40;99.90;;;;;;21059051;28;20028;-75
2021/08/18 09:03:55;;;;;;;11.00;5.20;;;16.90;99.90;;;;;;21058010;28;20089;-75
2021/08/18 09:13:56;;;;;;;10.93;5.97;;;17.10;99.90;;;;;;21075855;28;20043;-75
2021/08/18 09:24:15;;;;;;;10.33;4.17;;;17.30;99.90;;;;;;21075399;28;20478;-75
2021/08/18 09:34:16;;;;;;;8.00;4.18;;;17.50;99.90;;;;;;21074617;28;20456;-76
2021/08/18 09:44:19;;;;;;;12.57;5.80;;;18.10;99.90;;;;;;21074338;28;20028;-76
2021/08/18 09:54:20;;;;;;;11.90;5.50;;;18.30;99.90;;;;;;21075957;28;20040;-75
2021/08/18 10:04:21;;;;;;;10.20;5.20;;;19.60;99.90;;;;;;21073231;28;20109;-75
2021/08/18 10:14:22;;;;;;;11.37;4.73;;;19.90;99.90;;;;;;21053196;28;20039;-75
2021/08/18 10:24:35;;;;;;;9.43;4.43;;;19.50;99.90;;;;;;21025002;22;20106;-78
2021/08/18 10:34:50;;;;;;;6.82;2.83;;;19.80;99.90;;;;;;21083197;28;20398;-78
2021/08/18 10:44:53;;;;;;;8.20;3.50;;;19.50;99.90;;;;;;21087086;28;20028;-78
2021/08/18 10:55:14;;;;;;;7.82;3.92;;;21.20;99.90;;;;;;21058859;28;20044;-79
2021/08/18 11:05:16;;;;;;;8.05;3.85;;;21.00;99.90;;;;;;21061292;28;20032;-79
2021/08/18 11:15:19;;;;;;;6.75;2.63;;;21.30;99.90;;;;;;21075099;28;20538;-81
2021/08/18 11:25:20;;;;;;;4.70;2.63;;;21.30;99.90;;;;;;21069797;28;20036;-80
2021/08/18 11:35:36;;;;;;;6.40;2.47;;;21.30;99.90;;;;;;21080235;28;20017;-80
2021/08/18 11:45:38;;;;;;;3.80;2.30;;;21.10;99.90;;;;;;21068313;28;20405;-80
2021/08/18 11:55:38;;;;;;;3.13;2.10;;;20.90;99.90;;;;;;21074968;28;20028;-80
2021/08/18 12:05:39;;;;;;;5.67;1.83;;;20.90;99.90;;;;;;21056692;28;20050;-80
2021/08/18 12:15:44;;;;;;;2.70;1.73;;;22.50;99.90;;;;;;21064843;28;20032;-79
2021/08/18 12:25:45;;;;;;;4.70;1.65;;;21.60;99.90;;;;;;21047942;28;20581;-80
2021/08/18 12:35:46;;;;;;;2.80;1.63;;;21.90;99.90;;;;;;21067645;28;20028;-81
2021/08/18 12:45:48;;;;;;;5.87;1.70;;;22.40;99.90;;;;;;21067017;28;20024;-80
2021/08/18 12:55:50;;;;;;;3.47;1.42;;;22.20;99.90;;;;;;21064344;28;20111;-80
2021/08/18 13:05:52;;;;;;;2.80;1.05;;;22.00;99.90;;;;;;21044625;28;20206;-80
2021/08/18 13:15:53;;;;;;;3.00;1.50;;;23.10;99.90;;;;;;21063189;28;20035;-80
2021/08/18 13:25:54;;;;;;;3.67;1.50;;;23.00;99.90;;;;;;21044765;28;20110;-81
2021/08/18 13:35:55;;;;;;;6.87;1.20;;;23.10;99.90;;;;;;21019882;28;20025;-74
2021/08/18 13:45:57;;;;;;;2.33;1.10;;;22.10;99.90;;;;;;21054674;28;20087;-75
2021/08/18 13:55:58;;;;;;;3.37;1.10;;;21.60;99.90;;;;;;21056662;28;20556;-75
2021/08/18 14:05:58;;;;;;;1.70;1.00;;;22.00;99.90;;;;;;21053094;28;20059;-75
2021/08/18 14:15:59;;;;;;;5.13;1.40;;;23.30;99.90;;;;;;21053175;28;20032;-75
2021/08/18 14:26:04;;;;;;;2.27;1.30;;;23.10;99.90;;;;;;21053528;28;20047;-75
2021/08/18 14:36:04;;;;;;;2.47;1.38;;;23.60;99.90;;;;;;21054123;28;20361;-75
2021/08/18 14:46:06;;;;;;;2.97;1.37;;;23.40;99.90;;;;;;21077588;28;20048;-76
2021/08/18 14:56:07;;;;;;;3.00;1.45;;;23.20;99.90;;;;;;21084773;28;20416;-77
2021/08/18 15:06:08;;;;;;;2.87;1.60;;;22.90;99.90;;;;;;21085692;28;20028;-77
2021/08/18 15:16:09;;;;;;;1.85;1.42;;;23.00;99.90;;;;;;21066290;28;20047;-77
2021/08/18 15:26:10;;;;;;;2.97;1.57;;;22.70;99.90;;;;;;21066943;28;20398;-81
2021/08/18 15:36:11;;;;;;;2.28;1.35;;;22.60;99.90;;;;;;21088578;28;20091;-75
2021/08/18 15:46:14;;;;;;;5.83;1.60;;;23.20;99.90;;;;;;21083328;28;20043;-75
2021/08/18 15:56:15;;;;;;;2.50;1.25;;;22.40;99.90;;;;;;21081111;28;20028;-75
2021/08/18 16:06:16;;;;;;;5.30;1.40;;;22.10;99.90;;;;;;21080325;28;20027;-75
2021/08/18 16:16:17;;;;;;;2.83;1.43;;;21.50;99.90;;;;;;21079974;28;20028;-74
2021/08/18 16:26:17;;;;;;;3.70;1.27;;;21.70;99.90;;;;;;21079229;28;20059;-74
2021/08/18 16:36:20;;;;;;;1.80;1.17;;;21.50;99.90;;;;;;21078287;28;20046;-75
2021/08/18 16:46:21;;;;;;;3.47;1.10;;;21.10;99.90;;;;;;21077611;28;20036;-75
2021/08/18 16:56:22;;;;;;;1.53;0.90;;;21.10;99.90;;;;;;21058657;28;20122;-75
2021/08/18 17:06:23;;;;;;;4.67;1.33;;;20.80;99.90;;;;;;21075664;28;20507;-75
2021/08/18 17:16:24;;;;;;;2.10;1.20;;;20.30;99.90;;;;;;21075234;28;20031;-75
2021/08/18 17:26:28;;;;;;;2.67;1.20;;;20.20;99.90;;;;;;21077322;28;20038;-75
2021/08/18 17:36:30;;;;;;;5.15;1.17;;;20.10;99.90;;;;;;21075366;28;20039;-75
2021/08/18 17:46:31;;;;;;;1.58;0.90;;;19.60;99.90;;;;;;21074264;28;20036;-75
2021/08/18 17:56:33;;;;;;;4.80;0.97;;;19.60;99.90;;;;;;21073714;28;20496;-75
2021/08/18 18:06:33;;;;;;;;;;;19.00;99.90;;;;;;21055587;28;20032;-75
2021/08/18 18:16:34;;;;;;;4.10;1.50;;;18.80;99.90;;;;;;21085200;28;19942;-75
2021/08/18 18:26:35;;;;;;;1.70;1.00;;;18.70;99.90;;;;;;21090105;28;20028;-75
2021/08/18 18:36:36;;;;;;;2.63;1.10;;;18.30;99.90;;;;;;21088084;28;20101;-75
2021/08/18 18:46:37;;;;;;;3.47;1.47;;;18.00;99.90;;;;;;21052061;28;20036;-75
2021/08/18 18:56:38;;;;;;;1.57;1.13;;;17.70;99.90;;;;;;21085032;28;20032;-75
2021/08/18 19:06:39;;;;;;;3.13;1.43;;;17.40;99.90;;;;;;21082534;28;20300;-75
2021/08/18 19:16:40;;;;;;;4.73;1.40;;;17.30;99.90;;;;;;21084315;28;20032;-75
2021/08/18 19:26:41;;;;;;;1.85;1.20;;;17.00;99.90;;;;;;21095611;28;20031;-79
2021/08/18 19:36:42;;;;;;;3.17;1.33;;;17.00;99.90;;;;;;21095395;28;20054;-80
2021/08/18 19:46:43;;;;;;;3.67;1.50;;;16.70;99.90;;;;;;21094869;28;20031;-79
2021/08/18 19:56:44;;;;;;;2.13;1.20;;;16.60;99.90;;;;;;21069814;28;20028;-78
2021/08/18 20:06:45;;;;;;;4.00;1.43;;;16.40;99.90;;;;;;21071206;28;20028;-79
2021/08/18 20:16:45;;;;;;;5.83;3.97;;;16.20;99.90;;;;;;21090889;28;20422;-79
2021/08/18 20:26:46;;;;;;;4.00;2.20;;;15.50;99.90;;;;;;21088987;28;20390;-79
2021/08/18 20:36:47;;;;;;;3.17;1.70;;;15.00;99.90;;;;;;21088247;28;20057;-78
2021/08/18 20:46:48;;;;;;;2.03;1.43;;;15.20;99.90;;;;;;21052853;28;20039;-79
2021/08/18 20:56:51;;;;;;;2.50;1.90;;;15.50;99.90;;;;;;21092163;28;20088;-79
2021/08/18 21:06:52;;;;;;;2.55;1.70;;;15.70;99.90;;;;;;21077300;28;20123;-78
2021/08/18 21:16:53;;;;;;;3.07;2.07;;;15.80;99.90;;;;;;21076758;28;20028;-79
2021/08/18 21:26:54;;;;;;;6.97;1.87;;;16.00;99.90;;;;;;21094684;28;20111;-79
2021/08/18 21:36:55;;;;;;;3.57;2.33;;;15.80;99.90;;;;;;21076461;28;20028;-79
2021/08/18 21:46:56;;;;;;;5.03;2.13;;;15.80;99.90;;;;;;21068350;28;20055;-78
2021/08/18 21:56:57;;;;;;;3.10;1.97;;;15.90;99.90;;;;;;21067733;28;20040;-79
2021/08/18 22:06:58;;;;;;;2.97;2.03;;;15.90;99.90;;;;;;21035430;28;20028;-78
2021/08/18 22:16:59;;;;;;;4.93;2.23;;;15.80;99.90;;;;;;21076425;22;20040;-74
2021/08/18 22:27:01;;;;;;;4.20;2.87;;;15.70;99.90;;;;;;20973715;28;20066;-75
2021/08/18 22:37:02;;;;;;;3.83;2.70;;;15.70;99.90;;;;;;21063423;28;20073;-75
2021/08/18 22:47:03;;;;;;;5.43;2.92;;;15.60;99.90;;;;;;21063331;28;20035;-75
2021/08/18 22:57:04;;;;;;;4.40;3.10;;;15.60;99.90;;;;;;21069817;28;20046;-74
2021/08/18 23:07:06;;;;;;;4.60;2.80;;;15.60;99.90;;;;;;21082204;28;20036;-75
2021/08/18 23:17:07;;;;;;;4.57;2.95;;;15.50;99.90;;;;;;21065049;28;20506;-73
2021/08/18 23:27:07;;;;;;;5.30;2.50;;;15.40;99.90;;;;;;21078687;28;20109;-75
2021/08/18 23:37:08;;;;;;;6.47;2.50;;;15.40;99.90;;;;;;21093271;28;20036;-75
2021/08/18 23:47:09;;;;;;;4.60;2.50;;;15.30;99.90;;;;;;21072563;28;20028;-75
2021/08/18 23:57:10;;;;;;;6.50;2.57;;;15.20;99.90;;;;;;21093267;28;20031;-75
